Time;durP1;ratioP1;P1;durP2;ratioP2;P2;SDS_P1;SDS_P2;PMS_P1;PMS_P2;Temp;Humidity;BMP_temperature;BMP_pressure;BME280_temperature;BME280_humidity;BME280_pressure;Samples;Min_cycle;Max_cycle;Signal;HPM_P1;HPM_P2
2022/04/18 00:00:11;;;;;;;2.33;1.60;;;12.10;35.00;;;;;;4977105;28;20054;-44
2022/04/18 00:02:39;;;;;;;2.35;1.45;;;12.10;35.00;;;;;;4976376;28;20063;-45
2022/04/18 00:05:07;;;;;;;4.72;1.77;;;12.00;35.00;;;;;;4977796;28;20058;-44
2022/04/18 00:07:35;;;;;;;2.33;1.88;;;12.00;35.20;;;;;;4976313;28;20733;-43
2022/04/18 00:10:03;;;;;;;2.50;1.50;;;12.00;35.30;;;;;;4982343;28;20421;-44
2022/04/18 00:12:31;;;;;;;2.85;1.55;;;11.90;35.30;;;;;;4973262;28;20414;-44
2022/04/18 00:14:59;;;;;;;2.38;1.42;;;11.90;35.50;;;;;;4973129;28;20050;-45
2022/04/18 00:17:28;;;;;;;4.20;1.83;;;11.90;35.60;;;;;;4980604;28;20050;-46
2022/04/18 00:19:55;;;;;;;3.35;1.90;;;11.80;35.80;;;;;;4980648;28;20054;-45
2022/04/18 00:22:24;;;;;;;4.03;2.05;;;11.80;35.90;;;;;;4976117;28;20052;-43
2022/04/18 00:24:52;;;;;;;4.25;2.20;;;11.80;35.80;;;;;;4975889;28;21626;-44
2022/04/18 00:27:19;;;;;;;5.55;2.17;;;11.70;35.80;;;;;;4980213;28;20065;-45
2022/04/18 00:29:49;;;;;;;2.38;1.77;;;11.70;35.90;;;;;;4978266;28;20051;-44
2022/04/18 00:32:16;;;;;;;3.17;1.90;;;11.70;36.00;;;;;;4972762;28;20054;-45
2022/04/18 00:34:45;;;;;;;3.20;1.85;;;11.60;36.10;;;;;;4980798;28;20058;-45
2022/04/18 00:37:13;;;;;;;2.35;1.50;;;11.60;36.20;;;;;;4978762;28;20062;-44
2022/04/18 00:39:40;;;;;;;2.10;1.52;;;11.60;36.10;;;;;;4977337;28;20050;-44
2022/04/18 00:42:08;;;;;;;4.13;1.90;;;11.50;36.10;;;;;;4969476;28;20541;-44
2022/04/18 00:44:35;;;;;;;3.13;1.85;;;11.40;36.10;;;;;;4978414;28;20523;-50
2022/04/18 00:47:02;;;;;;;3.45;1.70;;;11.40;36.20;;;;;;4976504;28;20061;-44
2022/04/18 00:49:30;;;;;;;4.40;1.95;;;11.40;36.20;;;;;;4982444;28;20490;-44
2022/04/18 00:52:01;;;;;;;3.67;1.50;;;11.40;36.30;;;;;;4972164;28;20046;-44
2022/04/18 00:54:28;;;;;;;2.85;1.52;;;11.30;36.20;;;;;;4977737;28;20050;-44
2022/04/18 00:56:56;;;;;;;2.58;1.50;;;11.30;36.20;;;;;;4981370;28;20058;-44
2022/04/18 00:59:23;;;;;;;2.88;1.98;;;11.20;36.30;;;;;;4975614;28;20995;-44
2022/04/18 01:01:51;;;;;;;4.15;1.60;;;11.20;36.30;;;;;;4969852;28;20054;-44
2022/04/18 01:04:18;;;;;;;2.03;1.42;;;11.20;36.30;;;;;;4977988;28;20065;-44
2022/04/18 01:06:46;;;;;;;2.75;1.60;;;11.20;36.30;;;;;;4980445;28;20051;-44
2022/04/18 01:09:15;;;;;;;4.07;1.60;;;11.10;36.30;;;;;;4980385;28;20530;-44
2022/04/18 01:11:43;;;;;;;4.50;1.67;;;11.10;36.30;;;;;;4973951;28;20050;-47
2022/04/18 01:14:10;;;;;;;2.78;1.80;;;11.10;36.30;;;;;;4976549;28;20047;-44
2022/04/18 01:16:38;;;;;;;2.75;1.80;;;11.10;36.30;;;;;;4979276;28;20511;-44
2022/04/18 01:19:05;;;;;;;3.17;1.83;;;11.10;36.20;;;;;;4982000;28;20422;-44
2022/04/18 01:21:34;;;;;;;4.45;1.42;;;11.00;36.20;;;;;;4976683;28;20055;-44
2022/04/18 01:28:58;;;;;;;2.25;1.40;;;11.00;36.30;;;;;;4977444;28;20061;-45
2022/04/18 01:29:34;;;;;;;3.40;1.17;;;11.00;36.20;;;;;;4983571;28;20513;-44
2022/04/18 01:32:01;;;;;;;2.60;1.42;;;11.00;36.40;;;;;;4971742;28;20137;-44
2022/04/18 01:34:29;;;;;;;2.70;1.55;;;11.00;36.40;;;;;;4982749;28;20422;-44
2022/04/18 01:36:58;;;;;;;2.97;1.60;;;10.90;36.50;;;;;;4975865;28;20414;-45
2022/04/18 01:39:25;;;;;;;6.00;1.73;;;11.00;36.50;;;;;;4972228;28;20418;-44
2022/04/18 01:41:53;;;;;;;2.97;1.67;;;10.90;36.40;;;;;;4973976;28;20050;-44
2022/04/18 01:44:21;;;;;;;3.28;1.55;;;10.90;36.40;;;;;;4979312;28;20524;-45
2022/04/18 01:46:48;;;;;;;3.30;1.67;;;10.90;36.40;;;;;;4979364;28;20046;-44
2022/04/18 01:49:16;;;;;;;3.65;1.58;;;10.90;36.40;;;;;;4980134;28;20054;-44
2022/04/18 01:51:43;;;;;;;4.38;2.33;;;10.90;36.50;;;;;;4971154;28;20046;-44
2022/04/18 01:54:12;;;;;;;3.33;1.58;;;10.90;36.50;;;;;;4969961;28;20078;-44
2022/04/18 01:56:40;;;;;;;3.05;1.65;;;10.80;36.60;;;;;;4976165;28;20069;-44
2022/04/18 01:59:07;;;;;;;2.72;1.23;;;10.80;36.60;;;;;;4980175;28;20065;-44
2022/04/18 02:01:34;;;;;;;2.95;1.52;;;10.80;36.60;;;;;;4974227;28;20061;-47
2022/04/18 02:04:02;;;;;;;2.25;1.27;;;10.80;36.70;;;;;;4978964;28;20054;-44
2022/04/18 02:06:30;;;;;;;2.70;1.42;;;10.80;36.60;;;;;;4979282;28;20073;-45
2022/04/18 02:08:57;;;;;;;2.92;1.70;;;10.80;36.80;;;;;;4976590;28;20066;-44
2022/04/18 02:11:26;;;;;;;2.50;1.67;;;10.80;37.00;;;;;;4973902;28;20493;-44
2022/04/18 02:13:56;;;;;;;2.67;1.30;;;10.80;37.00;;;;;;4978287;28;20061;-44
2022/04/18 02:16:28;;;;;;;3.60;1.55;;;10.80;36.90;;;;;;4975464;28;20054;-44
2022/04/18 02:18:55;;;;;;;3.33;1.30;;;10.80;37.10;;;;;;4971695;28;20554;-45
2022/04/18 02:21:23;;;;;;;2.40;1.50;;;10.70;37.20;;;;;;4974990;28;20050;-48
2022/04/18 02:23:51;;;;;;;3.88;1.60;;;10.70;37.30;;;;;;4976848;28;20042;-45
2022/04/18 02:26:18;;;;;;;2.58;1.65;;;10.70;37.40;;;;;;4975764;28;20050;-45
2022/04/18 02:28:47;;;;;;;3.65;1.70;;;10.70;37.40;;;;;;4975337;28;20062;-44
2022/04/18 02:31:15;;;;;;;2.75;1.77;;;10.70;37.50;;;;;;4974452;28;20417;-44
2022/04/18 02:33:42;;;;;;;3.47;1.80;;;10.60;37.50;;;;;;4979464;28;20069;-44
2022/04/18 02:36:10;;;;;;;4.15;1.75;;;10.60;37.50;;;;;;4979253;28;20054;-44
2022/04/18 02:38:37;;;;;;;2.47;1.58;;;10.60;37.50;;;;;;4978462;28;20066;-44
2022/04/18 02:41:05;;;;;;;2.65;1.48;;;10.50;37.60;;;;;;4978568;28;20512;-44
2022/04/18 02:43:32;;;;;;;5.50;1.85;;;10.50;37.70;;;;;;4974527;28;20061;-44
2022/04/18 02:46:01;;;;;;;3.65;1.48;;;10.50;37.80;;;;;;4979303;28;20054;-44
2022/04/18 02:48:29;;;;;;;2.45;1.30;;;10.40;37.90;;;;;;4970993;28;20058;-44
2022/04/18 02:50:57;;;;;;;4.18;1.90;;;10.40;37.90;;;;;;4968935;28;20050;-44
2022/04/18 02:53:24;;;;;;;2.95;1.83;;;10.40;38.00;;;;;;4970743;28;20061;-46
2022/04/18 02:55:52;;;;;;;2.28;1.50;;;10.30;38.10;;;;;;4977574;28;20065;-44
2022/04/18 02:58:19;;;;;;;2.33;1.50;;;10.30;38.20;;;;;;4976124;28;20410;-45
2022/04/18 03:00:46;;;;;;;4.93;1.83;;;10.30;38.30;;;;;;4977352;28;20055;-46
2022/04/18 03:03:15;;;;;;;2.65;1.38;;;10.20;38.40;;;;;;4974718;28;20062;-44
2022/04/18 03:05:43;;;;;;;2.42;1.60;;;10.20;38.90;;;;;;4974111;28;20061;-44
2022/04/18 03:08:10;;;;;;;2.97;1.90;;;10.20;38.50;;;;;;4984714;28;20062;-44
2022/04/18 03:13:22;;;;;;;2.65;1.40;;;10.10;38.60;;;;;;4985226;28;20421;-44
2022/04/18 03:15:50;;;;;;;3.50;1.77;;;10.10;38.60;;;;;;4983484;28;20050;-44
2022/04/18 03:18:19;;;;;;;3.05;1.60;;;10.00;38.50;;;;;;4983985;28;20410;-46
2022/04/18 03:20:46;;;;;;;3.95;1.50;;;10.00;38.70;;;;;;4978355;28;21257;-43
2022/04/18 03:23:13;;;;;;;3.15;1.55;;;10.00;38.70;;;;;;4981546;28;20058;-45
2022/04/18 03:25:41;;;;;;;3.30;1.75;;;10.00;38.80;;;;;;4982937;28;20611;-44
2022/04/18 03:28:09;;;;;;;2.42;1.35;;;9.90;38.90;;;;;;4977453;28;20061;-44
2022/04/18 03:30:36;;;;;;;3.38;1.67;;;9.90;38.90;;;;;;4983241;28;20065;-44
2022/04/18 03:33:04;;;;;;;3.53;1.70;;;9.90;39.10;;;;;;4971429;28;20050;-44
2022/04/18 03:35:33;;;;;;;3.53;1.65;;;9.90;39.20;;;;;;4979969;28;20387;-44
2022/04/18 03:40:45;;;;;;;2.33;1.23;;;9.80;39.20;;;;;;4983208;28;20054;-45
2022/04/18 03:43:13;;;;;;;8.23;1.80;;;9.80;39.20;;;;;;4972224;28;20439;-43
2022/04/18 03:45:40;;;;;;;3.00;1.55;;;9.70;39.30;;;;;;4978246;28;20058;-47
2022/04/18 03:48:08;;;;;;;2.85;1.58;;;9.80;39.40;;;;;;4979916;28;20058;-45
2022/04/18 03:50:37;;;;;;;3.42;1.70;;;9.70;39.30;;;;;;4977543;28;20498;-44
2022/04/18 03:53:05;;;;;;;2.00;1.50;;;9.70;39.40;;;;;;4978311;28;20047;-43
2022/04/18 03:55:32;;;;;;;4.15;1.98;;;9.60;39.40;;;;;;4978236;28;20499;-44
2022/04/18 03:57:59;;;;;;;2.72;1.63;;;9.70;39.50;;;;;;4980176;28;20054;-44
2022/04/18 04:00:27;;;;;;;3.03;1.65;;;9.60;39.40;;;;;;4977780;28;20059;-43
2022/04/18 04:02:54;;;;;;;4.60;1.90;;;9.60;39.60;;;;;;4975212;28;20054;-45
2022/04/18 04:05:22;;;;;;;2.58;1.50;;;9.60;39.70;;;;;;4979552;28;20062;-44
2022/04/18 04:07:51;;;;;;;2.45;1.60;;;9.50;40.20;;;;;;4980266;28;20054;-44
2022/04/18 04:10:18;;;;;;;2.65;1.80;;;9.50;39.80;;;;;;4978332;28;20081;-43
2022/04/18 04:12:46;;;;;;;3.92;1.83;;;9.50;39.90;;;;;;4974466;28;20055;-44
2022/04/18 04:15:13;;;;;;;7.88;2.22;;;9.50;40.00;;;;;;4975055;28;20416;-44
2022/04/18 04:17:40;;;;;;;5.03;1.73;;;9.50;40.00;;;;;;4968619;28;20058;-43
2022/04/18 04:20:09;;;;;;;4.68;2.20;;;9.50;40.10;;;;;;4978130;28;20566;-44
2022/04/18 04:22:36;;;;;;;3.25;1.70;;;9.50;40.10;;;;;;4958854;28;20046;-45
2022/04/18 04:25:06;;;;;;;5.40;2.00;;;9.50;40.10;;;;;;4981901;28;20065;-44
2022/04/18 04:27:33;;;;;;;3.53;1.73;;;9.40;40.20;;;;;;4989073;28;21268;-44
2022/04/18 04:30:01;;;;;;;4.03;1.50;;;9.40;40.30;;;;;;4999296;28;20069;-44
2022/04/18 04:32:28;;;;;;;3.50;2.00;;;9.40;40.30;;;;;;4998728;28;20077;-45
2022/04/18 04:34:55;;;;;;;4.10;1.92;;;9.40;40.40;;;;;;4998379;28;20069;-44
2022/04/18 04:37:23;;;;;;;4.20;1.98;;;9.30;40.50;;;;;;5001205;28;20054;-44
2022/04/18 04:39:50;;;;;;;3.47;1.58;;;9.30;40.70;;;;;;4999992;28;20057;-44
2022/04/18 04:42:20;;;;;;;2.33;1.60;;;9.30;40.70;;;;;;4999197;28;20049;-44
2022/04/18 04:44:47;;;;;;;2.08;1.40;;;9.30;40.80;;;;;;4998767;28;20057;-44
2022/04/18 04:47:14;;;;;;;2.65;1.55;;;9.30;40.70;;;;;;5000238;28;20506;-44
2022/04/18 04:49:42;;;;;;;2.72;1.70;;;9.30;40.70;;;;;;4997795;28;20050;-44
2022/04/18 04:52:09;;;;;;;3.05;1.70;;;9.20;40.60;;;;;;4998186;28;20054;-45
2022/04/18 04:54:37;;;;;;;3.65;1.85;;;9.30;40.60;;;;;;4999298;28;20054;-43
2022/04/18 04:57:05;;;;;;;2.97;1.83;;;9.20;40.60;;;;;;5000881;28;20521;-43
2022/04/18 04:59:34;;;;;;;3.03;1.80;;;9.20;40.60;;;;;;5000832;28;20060;-48
2022/04/18 05:02:01;;;;;;;3.03;1.80;;;9.20;40.60;;;;;;4995802;28;20066;-43
2022/04/18 05:04:28;;;;;;;3.28;1.70;;;9.20;40.70;;;;;;4999220;28;20054;-43
2022/04/18 05:06:56;;;;;;;3.25;1.80;;;9.20;40.80;;;;;;4998133;28;20723;-45
2022/04/18 05:09:24;;;;;;;3.55;1.77;;;9.20;40.90;;;;;;4999003;28;20494;-43
2022/04/18 05:11:52;;;;;;;3.75;2.03;;;9.20;41.00;;;;;;4999754;28;20058;-43
2022/04/18 05:14:20;;;;;;;4.13;1.80;;;9.20;41.10;;;;;;5000177;28;20410;-44
2022/04/18 05:16:49;;;;;;;7.70;1.90;;;9.30;41.10;;;;;;5000373;28;20409;-43
2022/04/18 05:19:16;;;;;;;3.17;1.58;;;9.30;41.10;;;;;;4998985;28;20050;-45
2022/04/18 05:21:43;;;;;;;2.67;1.60;;;9.30;41.20;;;;;;4998641;28;20054;-43
2022/04/18 05:24:11;;;;;;;4.68;2.00;;;9.30;41.20;;;;;;4998532;28;20077;-44
2022/04/18 05:26:38;;;;;;;3.42;1.75;;;9.40;41.40;;;;;;4998517;28;20054;-44
2022/04/18 05:29:06;;;;;;;3.25;1.48;;;9.40;41.40;;;;;;5001453;28;20421;-45
2022/04/18 05:31:33;;;;;;;3.33;1.80;;;9.40;41.30;;;;;;4996194;28;20062;-44
2022/04/18 05:34:02;;;;;;;2.40;1.42;;;9.40;41.20;;;;;;5001116;28;20516;-43
2022/04/18 05:36:30;;;;;;;3.03;1.50;;;9.50;41.20;;;;;;4998993;28;20077;-44
2022/04/18 05:38:57;;;;;;;2.22;1.50;;;9.60;41.30;;;;;;4997766;28;20064;-44
2022/04/18 05:41:25;;;;;;;8.63;1.73;;;9.60;41.40;;;;;;4992840;28;20053;-44
2022/04/18 05:43:52;;;;;;;2.47;1.55;;;9.60;41.50;;;;;;4999288;28;20056;-44
2022/04/18 05:46:19;;;;;;;4.20;1.63;;;9.60;41.60;;;;;;4999913;28;20053;-44
2022/04/18 05:48:47;;;;;;;2.90;1.80;;;9.70;41.60;;;;;;4997325;28;20500;-45
2022/04/18 05:51:16;;;;;;;5.93;1.42;;;9.80;41.70;;;;;;4994171;28;20062;-44
2022/04/18 05:53:43;;;;;;;3.22;1.85;;;9.80;41.80;;;;;;4996422;28;20056;-44
2022/04/18 05:56:11;;;;;;;2.58;1.52;;;9.90;41.70;;;;;;4995353;28;20486;-44
2022/04/18 05:58:40;;;;;;;4.18;1.90;;;9.90;41.70;;;;;;4998218;28;20478;-44
2022/04/18 06:01:08;;;;;;;2.25;1.50;;;10.00;41.70;;;;;;4997204;28;20053;-44
2022/04/18 06:03:35;;;;;;;7.50;3.85;;;10.10;41.80;;;;;;4996208;28;20050;-43
2022/04/18 06:06:02;;;;;;;5.70;2.78;;;10.10;41.90;;;;;;5000409;28;20544;-43
2022/04/18 06:08:31;;;;;;;4.15;2.10;;;10.20;42.10;;;;;;5001685;28;20061;-44
2022/04/18 06:10:59;;;;;;;3.55;1.85;;;10.20;42.10;;;;;;4999351;28;20053;-44
2022/04/18 06:13:26;;;;;;;2.55;1.70;;;10.30;42.20;;;;;;4998813;28;20489;-44
2022/04/18 06:15:53;;;;;;;4.63;1.77;;;10.30;42.30;;;;;;5001622;28;20060;-44
2022/04/18 06:18:21;;;;;;;3.63;1.70;;;10.40;42.40;;;;;;5002306;28;20441;-44
2022/04/18 06:20:48;;;;;;;3.92;1.73;;;10.50;42.30;;;;;;5000489;28;20050;-43
2022/04/18 06:23:16;;;;;;;3.95;1.80;;;10.50;42.10;;;;;;4997937;28;20382;-44
2022/04/18 06:25:45;;;;;;;7.60;2.13;;;10.60;42.10;;;;;;5000570;28;20053;-43
2022/04/18 06:28:13;;;;;;;3.15;1.70;;;10.70;42.30;;;;;;4999624;28;20092;-43
2022/04/18 06:30:40;;;;;;;4.03;1.80;;;10.70;42.40;;;;;;5000396;28;20049;-44
2022/04/18 06:33:10;;;;;;;3.35;1.90;;;10.80;42.10;;;;;;4997545;28;20058;-44
2022/04/18 06:35:38;;;;;;;3.65;1.65;;;10.90;42.20;;;;;;5001084;28;21042;-43
2022/04/18 06:38:06;;;;;;;3.97;1.85;;;10.90;42.10;;;;;;5001081;28;20058;-44
2022/04/18 06:40:33;;;;;;;7.63;1.85;;;10.90;42.20;;;;;;4999836;28;20061;-44
2022/04/18 06:43:02;;;;;;;3.55;1.80;;;11.00;42.00;;;;;;4999381;28;20061;-44
2022/04/18 06:45:31;;;;;;;3.90;2.08;;;11.10;42.20;;;;;;5005443;28;20053;-45
2022/04/18 06:47:58;;;;;;;5.20;2.00;;;11.10;42.10;;;;;;5005556;28;20414;-44
2022/04/18 06:50:26;;;;;;;3.45;1.92;;;11.20;42.10;;;;;;5002863;28;20061;-43
2022/04/18 06:52:54;;;;;;;5.03;2.10;;;11.30;42.30;;;;;;5002840;28;20056;-44
2022/04/18 06:55:21;;;;;;;4.43;2.00;;;11.30;42.10;;;;;;5003534;28;20409;-43
2022/04/18 06:57:48;;;;;;;4.72;2.30;;;11.40;42.00;;;;;;5004560;28;20065;-47
2022/04/18 07:00:17;;;;;;;3.63;1.88;;;11.50;41.90;;;;;;5004267;28;20050;-44
2022/04/18 07:02:46;;;;;;;3.92;1.92;;;11.60;42.20;;;;;;5002392;28;20302;-44
2022/04/18 07:05:13;;;;;;;5.03;2.08;;;11.60;42.10;;;;;;5004187;28;20058;-45
2022/04/18 07:07:41;;;;;;;4.53;2.30;;;11.70;41.90;;;;;;5000733;28;20050;-43
2022/04/18 07:10:09;;;;;;;5.75;2.42;;;11.80;41.90;;;;;;5001815;28;20054;-45
2022/04/18 07:12:36;;;;;;;5.15;1.90;;;11.90;41.70;;;;;;5002924;28;20060;-44
2022/04/18 07:15:04;;;;;;;4.38;2.45;;;11.90;41.60;;;;;;5004569;28;20054;-44
2022/04/18 07:17:33;;;;;;;3.63;2.10;;;12.00;41.70;;;;;;5004649;28;20069;-43
2022/04/18 07:20:01;;;;;;;4.35;1.75;;;12.00;41.60;;;;;;5003357;28;20590;-44
2022/04/18 07:22:28;;;;;;;3.30;2.10;;;12.10;41.00;;;;;;5002327;28;20061;-44
2022/04/18 07:24:58;;;;;;;3.40;1.55;;;12.20;41.00;;;;;;4998608;28;20046;-44
2022/04/18 07:27:26;;;;;;;3.22;1.92;;;12.30;41.00;;;;;;5001863;28;20062;-44
2022/04/18 07:29:55;;;;;;;8.00;1.85;;;12.40;41.20;;;;;;4997573;28;20054;-45
2022/04/18 07:32:22;;;;;;;4.72;1.75;;;12.40;40.90;;;;;;4997278;28;20058;-45
2022/04/18 07:34:53;;;;;;;20.40;2.60;;;12.50;41.00;;;;;;4995824;28;20061;-44
2022/04/18 07:37:20;;;;;;;3.88;2.33;;;12.60;40.80;;;;;;4992302;28;20060;-44
2022/04/18 07:39:48;;;;;;;4.75;1.70;;;12.60;40.70;;;;;;4987931;28;20064;-44
2022/04/18 07:42:15;;;;;;;3.72;1.95;;;12.70;40.70;;;;;;4993783;28;20061;-46
2022/04/18 07:44:43;;;;;;;5.22;2.20;;;12.70;40.50;;;;;;4997741;28;20050;-44
2022/04/18 07:47:10;;;;;;;4.15;2.63;;;12.80;40.50;;;;;;4996658;28;20064;-44
2022/04/18 07:49:38;;;;;;;2.80;1.77;;;12.90;40.40;;;;;;4994723;28;20387;-45
2022/04/18 07:52:08;;;;;;;2.22;1.60;;;12.90;40.40;;;;;;4997395;28;20077;-45
2022/04/18 07:54:36;;;;;;;4.53;1.88;;;13.00;40.30;;;;;;4990654;28;20782;-44
2022/04/18 07:57:04;;;;;;;4.10;1.88;;;13.00;40.50;;;;;;4991981;28;20054;-44
2022/04/18 07:59:32;;;;;;;4.78;2.20;;;13.10;40.40;;;;;;4992592;28;20062;-44
2022/04/18 08:01:59;;;;;;;6.60;1.75;;;13.20;40.60;;;;;;4991842;28;20054;-44
2022/04/18 08:04:27;;;;;;;3.97;2.10;;;13.20;40.80;;;;;;4992790;28;20520;-44
2022/04/18 08:06:54;;;;;;;3.85;2.05;;;13.30;40.60;;;;;;4998173;28;20057;-46
2022/04/18 08:09:23;;;;;;;4.10;1.92;;;13.40;40.90;;;;;;4996619;28;20057;-46
2022/04/18 08:11:50;;;;;;;4.38;2.08;;;13.40;40.90;;;;;;4991173;28;20057;-45
2022/04/18 08:14:18;;;;;;;3.22;1.70;;;13.50;40.60;;;;;;4993099;28;20050;-44
2022/04/18 08:16:45;;;;;;;3.70;1.88;;;13.60;40.50;;;;;;4998787;28;20054;-44
2022/04/18 08:19:13;;;;;;;6.18;2.95;;;13.60;40.50;;;;;;4993274;28;20058;-44
2022/04/18 08:21:40;;;;;;;4.00;2.10;;;13.70;40.10;;;;;;4997470;28;20060;-44
2022/04/18 08:24:08;;;;;;;2.33;1.70;;;13.70;39.90;;;;;;4998451;28;20405;-44
2022/04/18 08:26:36;;;;;;;3.75;1.90;;;13.80;40.00;;;;;;4998705;28;20505;-43
2022/04/18 08:29:04;;;;;;;4.25;2.13;;;13.90;39.90;;;;;;5001550;28;20326;-45
2022/04/18 08:31:31;;;;;;;4.25;2.10;;;14.00;39.70;;;;;;4998957;28;20058;-44
2022/04/18 08:33:59;;;;;;;3.92;1.95;;;14.00;39.30;;;;;;5003313;28;20046;-44
2022/04/18 08:36:26;;;;;;;3.47;1.90;;;14.10;39.30;;;;;;5001890;28;20065;-44
2022/04/18 08:38:54;;;;;;;5.40;2.08;;;14.20;39.40;;;;;;5002942;28;20065;-44
2022/04/18 08:41:25;;;;;;;5.15;2.03;;;14.20;39.60;;;;;;5001305;28;20062;-44
2022/04/18 08:43:55;;;;;;;3.50;2.05;;;14.20;39.30;;;;;;5002359;28;20061;-44
2022/04/18 08:46:23;;;;;;;2.72;1.90;;;14.30;39.30;;;;;;5003749;28;20054;-44
2022/04/18 08:54:24;;;;;;;3.63;1.90;;;14.50;39.10;;;;;;5007552;28;20429;-44
2022/04/18 08:56:51;;;;;;;4.32;2.10;;;14.60;39.00;;;;;;5000902;28;20736;-44
2022/04/18 08:59:20;;;;;;;3.42;2.15;;;14.60;38.90;;;;;;4999451;28;20399;-44
2022/04/18 09:01:50;;;;;;;4.50;1.83;;;14.60;38.90;;;;;;5000429;28;20066;-46
2022/04/18 09:04:18;;;;;;;4.93;1.83;;;14.70;38.80;;;;;;5001411;28;20559;-44
2022/04/18 09:06:46;;;;;;;2.25;1.67;;;14.80;38.80;;;;;;5002640;28;20062;-43
2022/04/18 09:09:14;;;;;;;3.25;2.08;;;14.80;39.00;;;;;;5001347;28;20496;-43
2022/04/18 09:11:46;;;;;;;3.40;1.90;;;14.90;38.80;;;;;;4997782;28;20395;-43
2022/04/18 09:14:16;;;;;;;2.17;1.75;;;15.00;38.60;;;;;;5002293;28;20057;-44
2022/04/18 09:16:44;;;;;;;4.47;1.92;;;15.00;38.60;;;;;;5002785;28;20832;-43
2022/04/18 09:19:13;;;;;;;3.90;1.80;;;15.10;38.30;;;;;;5001131;28;20490;-44
2022/04/18 09:21:44;;;;;;;3.50;1.80;;;15.20;37.90;;;;;;4997271;28;20068;-43
2022/04/18 09:24:31;;;;;;;3.67;1.85;;;15.30;37.90;;;;;;5001538;28;20057;-44
2022/04/18 09:27:04;;;;;;;2.95;1.98;;;15.30;37.70;;;;;;5000224;28;20069;-43
2022/04/18 09:29:33;;;;;;;2.97;1.80;;;15.40;37.40;;;;;;5002385;28;20060;-43
2022/04/18 09:32:07;;;;;;;3.33;1.98;;;15.50;36.70;;;;;;4998765;28;20053;-45
2022/04/18 09:34:34;;;;;;;4.43;2.00;;;15.50;36.50;;;;;;5001941;28;20406;-44
2022/04/18 09:37:16;;;;;;;3.28;1.88;;;15.60;36.40;;;;;;5000724;28;20050;-43
2022/04/18 09:39:45;;;;;;;4.70;2.13;;;15.70;36.20;;;;;;4999578;28;20061;-43
2022/04/18 09:42:14;;;;;;;7.82;2.22;;;15.70;36.40;;;;;;4999024;28;20141;-43
2022/04/18 09:44:42;;;;;;;3.05;1.83;;;15.80;36.40;;;;;;5001690;28;20512;-45
2022/04/18 09:47:17;;;;;;;3.67;1.95;;;15.80;35.90;;;;;;5000773;28;20512;-46
2022/04/18 09:49:45;;;;;;;2.75;1.80;;;15.90;35.00;;;;;;4999749;28;20054;-43
2022/04/18 09:52:15;;;;;;;5.43;2.17;;;15.90;34.90;;;;;;4999552;28;20401;-45
2022/04/18 09:54:45;;;;;;;3.35;2.00;;;16.00;35.20;;;;;;5000873;28;20577;-44
2022/04/18 09:57:13;;;;;;;3.45;1.95;;;16.00;35.50;;;;;;5001178;28;20053;-45
2022/04/18 09:59:42;;;;;;;2.83;1.70;;;16.10;35.30;;;;;;5000333;28;20058;-43
2022/04/18 10:02:14;;;;;;;3.67;1.92;;;16.10;35.20;;;;;;4999843;28;20076;-46
2022/04/18 10:04:43;;;;;;;3.60;1.95;;;16.20;34.80;;;;;;5001226;28;20069;-44
2022/04/18 10:07:11;;;;;;;3.70;1.90;;;16.20;34.70;;;;;;5001998;28;20394;-43
2022/04/18 10:09:40;;;;;;;3.67;1.80;;;16.30;34.80;;;;;;5000985;28;20065;-48
2022/04/18 10:12:10;;;;;;;2.92;1.80;;;16.30;35.00;;;;;;4998231;28;20056;-43
2022/04/18 10:14:38;;;;;;;4.72;2.33;;;16.40;34.40;;;;;;5000566;28;20513;-43
2022/04/18 10:17:07;;;;;;;3.20;2.03;;;16.40;34.90;;;;;;5001081;28;20057;-43
2022/04/18 10:19:57;;;;;;;3.50;2.30;;;16.50;35.10;;;;;;5001667;28;20057;-43
2022/04/18 10:22:54;;;;;;;4.28;2.28;;;16.50;35.10;;;;;;4998996;28;20061;-44
2022/04/18 10:25:39;;;;;;;5.55;1.90;;;16.50;34.00;;;;;;4989544;28;20042;-43
2022/04/18 10:28:09;;;;;;;;;;;16.50;34.50;;;;;;4999752;28;20068;-43
2022/04/18 10:30:45;;;;;;;2.53;1.95;;;16.60;35.00;;;;;;4997017;28;20373;-43
2022/04/18 10:33:13;;;;;;;4.22;1.92;;;16.70;35.00;;;;;;4998611;28;20065;-43
2022/04/18 10:35:54;;;;;;;4.00;2.15;;;16.70;34.70;;;;;;5000478;28;20061;-44
2022/04/18 10:38:25;;;;;;;3.15;2.28;;;16.70;34.10;;;;;;5000890;28;20073;-43
2022/04/18 10:41:14;;;;;;;3.28;2.13;;;16.80;34.50;;;;;;5000446;28;20057;-44
2022/04/18 10:44:05;;;;;;;3.00;2.10;;;16.80;34.30;;;;;;4999729;28;20066;-43
2022/04/18 10:46:33;;;;;;;3.03;1.70;;;16.80;33.80;;;;;;5001205;28;20061;-45
2022/04/18 10:49:01;;;;;;;3.58;1.92;;;16.80;34.00;;;;;;5001472;28;20061;-43
2022/04/18 10:51:34;;;;;;;3.47;1.77;;;16.80;33.90;;;;;;4997822;28;20053;-43
2022/04/18 10:54:10;;;;;;;2.80;1.83;;;16.90;34.70;;;;;;4998454;28;20061;-44
2022/04/18 10:56:52;;;;;;;2.92;1.70;;;16.90;34.90;;;;;;5000429;28;20253;-43
2022/04/18 10:59:21;;;;;;;8.13;2.20;;;17.00;34.70;;;;;;5000719;28;20058;-43
2022/04/18 11:01:49;;;;;;;3.83;1.70;;;17.00;34.70;;;;;;4998521;28;20057;-44
2022/04/18 11:04:17;;;;;;;2.72;1.70;;;17.10;34.20;;;;;;5001154;28;20062;-43
2022/04/18 11:06:48;;;;;;;4.47;2.03;;;17.10;33.00;;;;;;5001215;28;20061;-43
2022/04/18 11:09:21;;;;;;;2.08;1.50;;;17.10;33.90;;;;;;5000514;28;20065;-45
2022/04/18 11:11:53;;;;;;;4.28;1.80;;;17.20;34.20;;;;;;4996280;28;20422;-43
2022/04/18 11:14:22;;;;;;;2.80;1.38;;;17.30;33.90;;;;;;5001140;28;20057;-45
2022/04/18 11:16:57;;;;;;;2.40;1.38;;;17.30;33.80;;;;;;4999796;28;20065;-45
2022/04/18 11:19:27;;;;;;;6.13;1.48;;;17.40;33.30;;;;;;4998578;28;20065;-45
2022/04/18 11:22:23;;;;;;;2.58;1.40;;;17.40;33.40;;;;;;4999775;28;20410;-44
2022/04/18 11:25:00;;;;;;;3.35;1.13;;;17.40;32.70;;;;;;4997956;28;20069;-44
2022/04/18 11:27:38;;;;;;;1.83;1.20;;;17.50;32.80;;;;;;5003079;28;20058;-43
2022/04/18 11:30:09;;;;;;;1.63;1.10;;;17.50;33.00;;;;;;5002370;28;20046;-43
2022/04/18 11:32:37;;;;;;;4.30;1.98;;;17.50;33.10;;;;;;5000181;28;20049;-43
2022/04/18 11:35:07;;;;;;;1.95;1.10;;;17.50;32.50;;;;;;5004125;28;20120;-46
2022/04/18 11:37:39;;;;;;;1.48;0.95;;;17.50;32.30;;;;;;5002206;28;20049;-46
2022/04/18 11:40:09;;;;;;;1.42;1.00;;;17.50;32.00;;;;;;5003533;28;20046;-44
2022/04/18 11:42:37;;;;;;;1.77;0.93;;;17.50;32.10;;;;;;5001162;28;20486;-45
2022/04/18 11:45:06;;;;;;;2.03;1.20;;;17.60;32.10;;;;;;5003635;28;20057;-43
2022/04/18 11:47:38;;;;;;;1.38;1.20;;;17.60;31.90;;;;;;5002572;28;20054;-43
2022/04/18 11:50:07;;;;;;;2.17;1.00;;;17.60;31.70;;;;;;5001368;28;20057;-43
2022/04/18 11:52:37;;;;;;;1.77;1.10;;;17.60;32.20;;;;;;5001813;28;20049;-43
2022/04/18 11:55:06;;;;;;;3.55;1.10;;;17.60;31.90;;;;;;5002305;28;20062;-43
2022/04/18 11:57:35;;;;;;;1.48;1.10;;;17.60;31.50;;;;;;5002015;28;20409;-44
2022/04/18 12:00:05;;;;;;;2.17;1.10;;;17.70;31.70;;;;;;5002506;28;20062;-44
2022/04/18 12:08:10;;;;;;;4.68;1.17;;;17.80;31.60;;;;;;5003751;28;20057;-44
2022/04/18 12:10:41;;;;;;;1.67;0.98;;;17.80;31.50;;;;;;5000052;28;20494;-43
2022/04/18 12:13:10;;;;;;;1.83;1.10;;;17.90;31.80;;;;;;5002376;28;20386;-43
2022/04/18 12:15:38;;;;;;;4.22;1.27;;;17.90;31.60;;;;;;5003886;28;20417;-43
2022/04/18 12:18:11;;;;;;;1.67;0.80;;;17.90;31.60;;;;;;5003917;28;20394;-44
2022/04/18 12:20:41;;;;;;;1.85;1.10;;;18.00;31.10;;;;;;5000463;28;20052;-43
2022/04/18 12:23:15;;;;;;;1.33;0.93;;;18.00;31.40;;;;;;5001562;28;20054;-44
2022/04/18 12:25:45;;;;;;;2.97;0.88;;;18.10;31.70;;;;;;5000556;28;20390;-43
2022/04/18 12:28:14;;;;;;;2.85;1.02;;;18.10;31.60;;;;;;5002350;28;20682;-43
2022/04/18 12:30:41;;;;;;;4.05;0.90;;;18.10;31.40;;;;;;4997039;28;20064;-48
2022/04/18 12:33:13;;;;;;;2.78;1.40;;;18.20;31.40;;;;;;4996378;28;20054;-43
2022/04/18 12:35:43;;;;;;;1.67;1.13;;;18.20;31.20;;;;;;4999587;28;20058;-44
2022/04/18 12:38:13;;;;;;;3.15;1.35;;;18.20;31.10;;;;;;5000646;28;21060;-43
2022/04/18 12:40:42;;;;;;;2.20;1.10;;;18.30;30.90;;;;;;4999020;28;20052;-44
2022/04/18 12:43:11;;;;;;;1.58;0.90;;;18.30;30.90;;;;;;4998319;28;20054;-44
2022/04/18 12:45:47;;;;;;;4.20;1.00;;;18.30;30.60;;;;;;4998402;28;20061;-45
2022/04/18 12:48:15;;;;;;;3.47;1.38;;;18.30;30.40;;;;;;5000336;28;20069;-43
2022/04/18 12:50:44;;;;;;;2.70;1.23;;;18.40;30.70;;;;;;4998311;28;20045;-48
2022/04/18 12:53:13;;;;;;;1.77;1.13;;;18.40;30.70;;;;;;4998908;28;20054;-43
2022/04/18 12:55:41;;;;;;;2.83;1.38;;;18.40;30.40;;;;;;4999574;28;20049;-43
2022/04/18 12:58:19;;;;;;;3.55;1.25;;;18.50;30.60;;;;;;5000150;28;20053;-43
2022/04/18 13:00:49;;;;;;;3.10;1.10;;;18.50;30.10;;;;;;4997605;28;20402;-44
2022/04/18 13:03:17;;;;;;;2.22;1.73;;;18.50;30.00;;;;;;4993279;28;20494;-46
2022/04/18 13:05:46;;;;;;;1.77;1.02;;;18.60;29.70;;;;;;4997317;28;20057;-43
2022/04/18 13:08:16;;;;;;;2.13;1.10;;;18.60;29.80;;;;;;5000258;28;20052;-50
2022/04/18 13:10:46;;;;;;;4.85;1.30;;;18.60;29.70;;;;;;5000217;28;20081;-44
2022/04/18 13:13:15;;;;;;;1.25;0.90;;;18.70;29.90;;;;;;5000255;28;20058;-45
2022/04/18 13:15:46;;;;;;;1.48;1.00;;;18.70;29.90;;;;;;5002440;28;20076;-43